createdAt,value
2018-10-02T00:01:57.717Z,99555.13
2018-10-02T00:04:26.377Z,99551.71
2018-10-02T00:06:55.032Z,99546.92
2018-10-02T00:09:23.691Z,99546.75
2018-10-02T00:11:57.398Z,99550.25
2018-10-02T00:14:28.075Z,99562.67
2018-10-02T00:16:56.879Z,99563.53
2018-10-02T00:19:25.825Z,99578.13
2018-10-02T00:21:54.477Z,99560.12
2018-10-02T00:24:23.125Z,99559.36
2018-10-02T00:26:51.826Z,99569.61
2018-10-02T00:29:20.493Z,99576.01
2018-10-02T00:31:49.192Z,99577.29
2018-10-02T00:34:17.852Z,99574.30
2018-10-02T00:36:46.481Z,99575.67
2018-10-02T00:39:16.562Z,99577.80
2018-10-02T00:41:45.216Z,99591.45
2018-10-02T00:44:13.930Z,99589.23
2018-10-02T00:46:42.633Z,99581.98
2018-10-02T00:49:11.319Z,99592.12
2018-10-02T00:51:40.067Z,99586.53
2018-10-02T00:54:08.768Z,99585.81
2018-10-02T00:56:37.498Z,99587.05
2018-10-02T00:59:06.192Z,99590.45
2018-10-02T01:01:34.837Z,99587.81
2018-10-02T01:04:03.472Z,99582.97
2018-10-02T01:06:32.241Z,99586.95
2018-10-02T01:09:00.933Z,99580.23
2018-10-02T01:11:29.583Z,99587.53
2018-10-02T01:13:58.246Z,99577.37
2018-10-02T01:16:26.869Z,99575.15
2018-10-02T01:18:55.506Z,99576.48
2018-10-02T01:21:24.178Z,99579.09
2018-10-02T01:23:52.873Z,99581.21
2018-10-02T01:26:21.529Z,99583.23
2018-10-02T01:28:50.156Z,99570.77
2018-10-02T01:31:18.782Z,99578.88
2018-10-02T01:33:47.444Z,99589.33
2018-10-02T01:36:16.113Z,99595.38
2018-10-02T01:38:44.810Z,99584.77
2018-10-02T01:41:13.462Z,99588.13
2018-10-02T01:43:43.148Z,99594.88
2018-10-02T01:46:11.858Z,99606.89
2018-10-02T01:48:40.568Z,99608.60
2018-10-02T01:51:09.254Z,99613.02
2018-10-02T01:53:38.179Z,99608.38
2018-10-02T01:56:06.805Z,99623.61
2018-10-02T01:58:35.455Z,99617.67
2018-10-02T02:01:04.097Z,99627.13
2018-10-02T02:03:32.759Z,99630.61
2018-10-02T02:06:01.428Z,99626.63
2018-10-02T02:08:30.095Z,99630.58
2018-10-02T02:10:58.788Z,99627.20
2018-10-02T02:13:27.473Z,99625.50
2018-10-02T02:15:56.133Z,99637.44
2018-10-02T02:18:24.767Z,99637.94
2018-10-02T02:20:53.389Z,99635.91
2018-10-02T02:23:22.033Z,99636.83
2018-10-02T02:25:50.680Z,99643.26
2018-10-02T02:28:19.327Z,99649.19
2018-10-02T02:30:48.078Z,99645.39
2018-10-02T02:33:16.737Z,99648.83
2018-10-02T02:35:45.406Z,99648.86
2018-10-02T02:38:14.065Z,99652.14
2018-10-02T02:40:42.783Z,99646.70
2018-10-02T02:43:11.485Z,99653.84
2018-10-02T02:45:40.081Z,99649.26
2018-10-02T02:48:13.966Z,99646.66
2018-10-02T02:50:50.606Z,99636.58
2018-10-02T02:53:20.783Z,99645.91
2018-10-02T02:55:49.544Z,99642.44
2018-10-02T02:58:18.226Z,99637.85
2018-10-02T03:00:46.892Z,99647.25
2018-10-02T03:03:15.626Z,99643.39
2018-10-02T03:05:44.332Z,99634.51
2018-10-02T03:08:13.006Z,99639.12
2018-10-02T03:10:41.679Z,99636.47
2018-10-02T03:13:10.432Z,99637.33
2018-10-02T03:15:39.095Z,99640.80
2018-10-02T03:18:07.778Z,99633.59
2018-10-02T03:20:36.438Z,99641.29
2018-10-02T03:23:05.069Z,99646.50
2018-10-02T03:25:33.726Z,99653.73
2018-10-02T03:28:02.389Z,99654.59
2018-10-02T03:30:31.046Z,99657.60
2018-10-02T03:33:00.031Z,99663.14
2018-10-02T03:35:28.653Z,99654.68
2018-10-02T03:37:57.397Z,99655.59
2018-10-02T03:40:25.988Z,99655.92
2018-10-02T03:42:54.673Z,99658.91
2018-10-02T03:45:23.334Z,99661.83
2018-10-02T03:47:52.066Z,99662.73
2018-10-02T03:50:20.850Z,99666.00
2018-10-02T03:52:49.511Z,99665.27
2018-10-02T03:55:18.151Z,99666.55
2018-10-02T03:57:46.785Z,99672.50
2018-10-02T04:00:15.426Z,99673.39
2018-10-02T04:02:44.029Z,99678.09
2018-10-02T04:05:12.734Z,99686.22
2018-10-02T04:07:41.466Z,99678.10
2018-10-02T04:10:10.104Z,99691.67
2018-10-02T04:12:38.727Z,99687.44
2018-10-02T04:15:07.490Z,99683.55
2018-10-02T04:17:36.190Z,99681.02
2018-10-02T04:20:05.186Z,99700.22
2018-10-02T04:22:33.805Z,99691.72
2018-10-02T04:25:02.790Z,99708.25
2018-10-02T04:27:31.518Z,99696.81
2018-10-02T04:30:00.178Z,99698.97
2018-10-02T04:32:28.806Z,99703.22
2018-10-02T04:34:57.496Z,99699.39
2018-10-02T04:37:26.137Z,99700.70
2018-10-02T04:39:54.866Z,99699.42
2018-10-02T04:42:23.570Z,99700.72
2018-10-02T04:44:52.279Z,99702.83
2018-10-02T04:47:20.937Z,99707.14
2018-10-02T04:49:50.618Z,99703.54
2018-10-02T04:52:19.294Z,99708.39
2018-10-02T04:54:47.938Z,99710.06
2018-10-02T04:57:16.652Z,99715.04
2018-10-02T04:59:45.404Z,99712.57
2018-10-02T05:02:14.114Z,99717.68
2018-10-02T05:04:42.788Z,99722.36
2018-10-02T05:07:11.505Z,99720.66
2018-10-02T05:09:40.302Z,99724.06
2018-10-02T05:12:08.974Z,99726.25
2018-10-02T05:14:37.631Z,99727.47
2018-10-02T05:17:06.323Z,99724.89
2018-10-02T05:19:34.978Z,99738.86
2018-10-02T05:22:03.664Z,99735.05
2018-10-02T05:24:32.335Z,99740.67
2018-10-02T05:27:01.145Z,99743.15
2018-10-02T05:29:29.809Z,99742.70
2018-10-02T05:31:58.566Z,99750.25
2018-10-02T05:34:27.284Z,99754.66
2018-10-02T05:36:55.995Z,99745.73
2018-10-02T05:39:25.054Z,99746.61
2018-10-02T05:41:53.800Z,99754.67
2018-10-02T05:44:22.757Z,99756.75
2018-10-02T05:46:51.433Z,99764.05
2018-10-02T05:49:20.119Z,99757.18
2018-10-02T05:51:48.859Z,99759.73
2018-10-02T05:54:17.537Z,99778.02
2018-10-02T05:56:46.220Z,99778.95
2018-10-02T05:59:14.921Z,99779.83
2018-10-02T06:01:43.691Z,99786.17
2018-10-02T06:04:12.390Z,99795.49
2018-10-02T06:06:41.416Z,99793.44
2018-10-02T06:09:11.721Z,99802.83
2018-10-02T06:11:40.556Z,99808.79
2018-10-02T06:14:10.938Z,99808.80
2018-10-02T06:16:39.762Z,99811.33
2018-10-02T06:19:08.430Z,99815.53
2018-10-02T06:21:37.120Z,99825.63
2018-10-02T06:24:05.862Z,99832.91
2018-10-02T06:26:34.527Z,99843.50
2018-10-02T06:29:03.210Z,99836.31
2018-10-02T06:31:31.947Z,99844.76
2018-10-02T06:34:00.617Z,99856.31
2018-10-02T06:36:29.347Z,99857.52
2018-10-02T06:38:58.068Z,99865.22
2018-10-02T06:41:26.740Z,99869.88
2018-10-02T06:43:55.397Z,99871.16
2018-10-02T06:46:24.158Z,99867.62
2018-10-02T06:48:52.836Z,99869.58
2018-10-02T06:51:21.639Z,99878.30
2018-10-02T06:53:50.164Z,99875.73
2018-10-02T06:56:18.868Z,99878.36
2018-10-02T06:58:47.599Z,99877.81
2018-10-02T07:01:16.284Z,99888.08
2018-10-02T07:03:44.982Z,99892.00
2018-10-02T07:06:18.948Z,99903.09
2018-10-02T07:08:47.661Z,99889.81
2018-10-02T07:11:16.340Z,99888.77
2018-10-02T07:13:45.095Z,99890.94
2018-10-02T07:16:13.795Z,99900.66
2018-10-02T07:18:42.656Z,99902.91
2018-10-02T07:21:11.359Z,99900.42
2018-10-02T07:23:40.104Z,99912.34
2018-10-02T07:26:09.065Z,99907.83
2018-10-02T07:28:38.151Z,99904.95
2018-10-02T07:31:07.171Z,99910.82
2018-10-02T07:33:35.747Z,99910.09
2018-10-02T07:36:04.449Z,99917.42
2018-10-02T07:38:33.237Z,99936.45
2018-10-02T07:41:01.866Z,99932.87
2018-10-02T07:43:31.055Z,99933.92
2018-10-02T07:45:59.738Z,99936.84
2018-10-02T07:48:28.408Z,99936.49
2018-10-02T07:50:57.113Z,99943.61
2018-10-02T07:53:25.861Z,99938.23
2018-10-02T07:55:54.505Z,99943.91
2018-10-02T07:58:23.574Z,99953.47
2018-10-02T08:00:52.274Z,99961.49
2018-10-02T08:03:20.989Z,99953.81
2018-10-02T08:05:49.691Z,99949.28
2018-10-02T08:08:18.385Z,99967.38
2018-10-02T08:10:47.085Z,99969.69
2018-10-02T08:13:15.734Z,99977.13
2018-10-02T08:15:45.068Z,99966.29
2018-10-02T08:18:14.325Z,99984.27
2018-10-02T08:20:43.671Z,99977.97
2018-10-02T08:23:12.614Z,99969.00
2018-10-02T08:25:46.453Z,99977.97
2018-10-02T08:28:15.251Z,99988.10
2018-10-02T08:30:43.972Z,99982.23
2018-10-02T08:33:13.035Z,99991.38
2018-10-02T08:35:41.821Z,99991.46
2018-10-02T08:38:10.831Z,100009.79
2018-10-02T08:40:39.516Z,99983.44
2018-10-02T08:43:08.274Z,99996.86
2018-10-02T08:45:37.171Z,99980.67
2018-10-02T08:48:07.297Z,99974.96
2018-10-02T08:50:36.423Z,99977.31
2018-10-02T08:53:05.102Z,99977.26
2018-10-02T08:55:33.888Z,99980.28
2018-10-02T08:58:02.673Z,99984.16
2018-10-02T09:00:31.457Z,99992.53
2018-10-02T09:03:00.173Z,99990.23
2018-10-02T09:05:28.905Z,99997.36
2018-10-02T09:07:57.614Z,100002.09
2018-10-02T09:10:26.280Z,99992.05
2018-10-02T09:12:55.077Z,99995.44
2018-10-02T09:15:23.782Z,99996.97
2018-10-02T09:17:52.474Z,99991.36
2018-10-02T09:20:21.268Z,99988.27
2018-10-02T09:22:49.994Z,99990.66
2018-10-02T09:25:18.754Z,99986.77
2018-10-02T09:27:47.590Z,99973.32
2018-10-02T09:30:21.319Z,99985.80
2018-10-02T09:32:55.286Z,99965.72
2018-10-02T09:35:29.346Z,99973.39
2018-10-02T09:38:03.210Z,99979.71
2018-10-02T09:40:37.028Z,99975.41
2018-10-02T09:43:11.070Z,99977.66
2018-10-02T09:45:40.047Z,99969.77
2018-10-02T09:48:11.349Z,99978.98
2018-10-02T09:50:40.044Z,99984.45
2018-10-02T09:53:08.760Z,99972.95
2018-10-02T09:55:37.556Z,99975.66
2018-10-02T09:58:06.350Z,99976.08
2018-10-02T10:00:40.491Z,99997.69
2018-10-02T10:03:09.008Z,100001.31
2018-10-02T10:05:37.694Z,100001.14
2018-10-02T10:08:06.487Z,99997.62
2018-10-02T10:10:35.281Z,99998.02
2018-10-02T10:13:03.915Z,99989.92
2018-10-02T10:15:32.601Z,99999.53
2018-10-02T10:18:01.285Z,99995.41
2018-10-02T10:20:30.069Z,99995.84
2018-10-02T10:22:58.898Z,99995.25
2018-10-02T10:25:27.597Z,99992.67
2018-10-02T10:27:56.338Z,99982.56
2018-10-02T10:30:25.296Z,99995.34
2018-10-02T10:32:54.077Z,99988.16
2018-10-02T10:35:23.081Z,99992.25
2018-10-02T10:37:51.811Z,99979.77
2018-10-02T10:40:20.510Z,99985.29
2018-10-02T10:42:49.271Z,99981.95
2018-10-02T10:45:17.987Z,99970.23
2018-10-02T10:47:46.675Z,99981.09
2018-10-02T10:50:15.414Z,99978.56
2018-10-02T10:52:44.207Z,99984.98
2018-10-02T10:55:21.865Z,99969.42
2018-10-02T10:57:51.072Z,99966.39
2018-10-02T11:00:19.992Z,99962.31
2018-10-02T11:02:49.007Z,99958.95
2018-10-02T11:05:17.966Z,99962.14
2018-10-02T11:07:46.757Z,99975.59
2018-10-02T11:10:16.914Z,99945.58
2018-10-02T11:12:45.838Z,99949.47
2018-10-02T11:15:14.709Z,99964.95
2018-10-02T11:17:43.377Z,99945.27
2018-10-02T11:20:14.538Z,99952.80
2018-10-02T11:22:43.316Z,99953.02
2018-10-02T11:25:12.114Z,99951.26
2018-10-02T11:27:40.871Z,99945.42
2018-10-02T11:30:10.204Z,99934.80
2018-10-02T11:32:39.061Z,99926.08
2018-10-02T11:35:07.808Z,99963.77
2018-10-02T11:37:36.599Z,99942.52
2018-10-02T11:40:05.550Z,99926.13
2018-10-02T11:42:34.312Z,99936.87
2018-10-02T11:45:03.179Z,99918.92
2018-10-02T11:47:31.904Z,99907.00
2018-10-02T11:50:00.684Z,99905.79
2018-10-02T11:52:29.352Z,99927.44
2018-10-02T11:54:58.035Z,99921.12
2018-10-02T11:57:26.896Z,99926.05
2018-10-02T11:59:55.573Z,99911.66
2018-10-02T12:02:24.432Z,99930.70
2018-10-02T12:04:53.104Z,99916.53
2018-10-02T12:07:21.795Z,99902.28
2018-10-02T12:09:50.506Z,99898.80
2018-10-02T12:12:19.264Z,99887.59
2018-10-02T12:14:47.969Z,99906.03
2018-10-02T12:17:16.970Z,99884.73
2018-10-02T12:19:45.810Z,99901.33
2018-10-02T12:22:14.542Z,99893.28
2018-10-02T12:24:43.224Z,99956.17
2018-10-02T12:27:12.048Z,99895.14
2018-10-02T12:29:40.712Z,99901.45
2018-10-02T12:32:09.474Z,99896.77
2018-10-02T12:34:38.180Z,99923.38
2018-10-02T12:37:06.935Z,99880.32
2018-10-02T12:39:35.792Z,99884.52
2018-10-02T12:42:04.543Z,99882.41
2018-10-02T12:44:33.267Z,99893.59
2018-10-02T12:47:02.054Z,99892.89
2018-10-02T12:49:30.863Z,99890.66
2018-10-02T12:51:59.664Z,99887.72
2018-10-02T12:54:28.406Z,99894.52
2018-10-02T12:56:57.107Z,99896.17
2018-10-02T12:59:25.931Z,99895.95
2018-10-02T13:01:54.650Z,99899.36
2018-10-02T13:04:23.405Z,99912.27
2018-10-02T13:06:52.129Z,99921.00
2018-10-02T13:09:20.840Z,99900.48
2018-10-02T13:11:49.526Z,99896.92
2018-10-02T13:14:18.218Z,99905.98
2018-10-02T13:16:47.008Z,99896.27
2018-10-02T13:19:15.756Z,99884.73
2018-10-02T13:21:44.548Z,99893.21
2018-10-02T13:24:13.318Z,99892.11
2018-10-02T13:26:42.012Z,99897.23
2018-10-02T13:29:10.865Z,99892.89
2018-10-02T13:31:39.674Z,99893.52
2018-10-02T13:34:08.426Z,99905.19
2018-10-02T13:36:37.172Z,99912.05
2018-10-02T13:39:08.774Z,99896.86
2018-10-02T13:41:37.635Z,99875.59
2018-10-02T13:44:06.443Z,99881.23
2018-10-02T13:46:35.197Z,99878.83
2018-10-02T13:49:03.906Z,99879.31
2018-10-02T13:51:32.683Z,99869.30
2018-10-02T13:54:01.447Z,99862.95
2018-10-02T13:56:30.202Z,99867.80
2018-10-02T13:58:58.947Z,99857.28
2018-10-02T14:01:27.743Z,99856.91
2018-10-02T14:03:56.446Z,99844.23
2018-10-02T14:06:25.235Z,99838.92
2018-10-02T14:08:53.966Z,99849.36
2018-10-02T14:11:22.681Z,99865.13
2018-10-02T14:13:51.354Z,99846.71
2018-10-02T14:16:20.376Z,99856.02
2018-10-02T14:18:49.395Z,99855.16
2018-10-02T14:21:18.206Z,99874.39
2018-10-02T14:23:46.946Z,99857.07
2018-10-02T14:26:15.681Z,99860.88
2018-10-02T14:28:44.516Z,99864.08
2018-10-02T14:31:13.268Z,99882.53
2018-10-02T14:33:41.986Z,99867.95
2018-10-02T14:36:10.695Z,99867.64
2018-10-02T14:38:39.417Z,99865.23
2018-10-02T14:41:08.234Z,99873.23
2018-10-02T14:43:37.107Z,99888.75
2018-10-02T14:46:05.956Z,99885.93
2018-10-02T14:48:34.769Z,99875.81
2018-10-02T14:51:03.584Z,99896.14
2018-10-02T14:53:32.318Z,99878.65
2018-10-02T14:56:01.165Z,99874.03
2018-10-02T14:58:29.970Z,99867.37
2018-10-02T15:00:58.650Z,99879.70
2018-10-02T15:03:27.316Z,99856.91
2018-10-02T15:05:56.120Z,99860.93
2018-10-02T15:08:24.900Z,99855.09
2018-10-02T15:10:53.784Z,99853.41
2018-10-02T15:13:22.524Z,99894.61
2018-10-02T15:15:51.273Z,99868.17
2018-10-02T15:18:19.993Z,99861.97
2018-10-02T15:20:48.900Z,99849.39
2018-10-02T15:23:18.066Z,99860.60
2018-10-02T15:25:46.833Z,99850.30
2018-10-02T15:28:15.670Z,99856.66
2018-10-02T15:30:44.376Z,99856.36
2018-10-02T15:33:13.239Z,99851.48
2018-10-02T15:35:42.009Z,99851.05
2018-10-02T15:38:10.828Z,99855.14
2018-10-02T15:40:39.680Z,99847.89
2018-10-02T15:43:08.722Z,99850.81
2018-10-02T15:48:25.863Z,99850.84
2018-10-02T15:50:54.776Z,99845.04
2018-10-02T15:53:23.480Z,99843.27
2018-10-02T15:55:52.278Z,99831.45
2018-10-02T15:58:21.032Z,99833.39
2018-10-02T16:00:49.965Z,99834.80
2018-10-02T16:03:18.760Z,99837.16
2018-10-02T16:05:47.532Z,99848.85
2018-10-02T16:08:16.427Z,99858.84
2018-10-02T16:10:45.291Z,99861.59
2018-10-02T16:13:14.064Z,99851.00
2018-10-02T16:15:42.839Z,99860.36
2018-10-02T16:18:11.650Z,99859.38
2018-10-02T16:20:40.466Z,99869.75
2018-10-02T16:23:09.197Z,99872.06
2018-10-02T16:25:37.967Z,99865.52
2018-10-02T16:28:06.799Z,99865.23
2018-10-02T16:30:35.623Z,99864.98
2018-10-02T16:33:04.377Z,99872.50
2018-10-02T16:35:33.101Z,99861.94
2018-10-02T16:38:01.831Z,99877.40
2018-10-02T16:40:30.593Z,99873.97
2018-10-02T16:42:59.710Z,99868.86
2018-10-02T16:45:28.540Z,99869.70
2018-10-02T16:47:57.347Z,99870.99
2018-10-02T16:50:26.635Z,99874.88
2018-10-02T16:52:55.583Z,99870.29
2018-10-02T16:55:24.376Z,99875.77
2018-10-02T16:57:53.254Z,99880.11
2018-10-02T17:00:22.093Z,99870.41
2018-10-02T17:02:50.884Z,99883.71
2018-10-02T17:05:20.343Z,99873.14
2018-10-02T17:07:51.202Z,99887.76
2018-10-02T17:10:19.959Z,99879.97
2018-10-02T17:12:48.946Z,99877.91
2018-10-02T17:15:17.825Z,99884.31
2018-10-02T17:17:46.628Z,99880.14
2018-10-02T17:20:15.433Z,99883.69
2018-10-02T17:22:44.132Z,99891.77
2018-10-02T17:25:13.038Z,99887.52
2018-10-02T17:27:42.426Z,99894.84
2018-10-02T17:30:11.222Z,99881.62
2018-10-02T17:32:40.051Z,99893.66
2018-10-02T17:35:10.745Z,99886.40
2018-10-02T17:37:53.087Z,99888.28
2018-10-02T17:44:12.571Z,99884.52
2018-10-02T17:46:42.604Z,99887.05
2018-10-02T17:51:23.391Z,99889.22
2018-10-02T17:54:15.603Z,99886.31
2018-10-02T17:56:54.439Z,99879.95
2018-10-02T18:02:28.776Z,99881.69
2018-10-02T18:05:03.718Z,99881.34
2018-10-02T18:07:46.464Z,99893.27
2018-10-02T18:10:24.015Z,99890.19
2018-10-02T18:12:59.980Z,99886.48
2018-10-02T18:15:37.049Z,99883.97
2018-10-02T18:18:21.524Z,99886.09
2018-10-02T18:20:52.545Z,99885.17
2018-10-02T18:26:11.973Z,99887.68
2018-10-02T18:28:48.683Z,99883.77
2018-10-02T18:31:27.533Z,99888.89
2018-10-02T18:33:58.455Z,99893.08
2018-10-02T18:36:28.265Z,99895.66
2018-10-02T18:38:58.601Z,99893.87
2018-10-02T18:41:33.597Z,99887.45
2018-10-02T18:44:05.154Z,99884.88
2018-10-02T19:07:18.252Z,99896.78
2018-10-02T19:09:55.746Z,99901.52
2018-10-02T19:12:27.022Z,99901.87
2018-10-02T19:15:06.242Z,99903.63
2018-10-02T19:17:54.486Z,99907.02
2018-10-02T19:20:33.951Z,99891.72
2018-10-02T19:23:13.847Z,99900.67
2018-10-02T19:25:50.022Z,99893.45
2018-10-02T19:28:34.636Z,99893.91
2018-10-02T19:31:14.222Z,99899.39
2018-10-02T19:33:45.153Z,99898.55
2018-10-02T19:36:21.754Z,99891.72
2018-10-02T19:39:00.128Z,99898.22
2018-10-02T19:44:34.948Z,99899.93
2018-10-02T19:47:12.946Z,99903.69
2018-10-02T19:49:46.820Z,99896.86
2018-10-02T19:52:33.299Z,99900.27
2018-10-02T20:17:06.992Z,99895.81
2018-10-02T20:19:39.611Z,99893.63
2018-10-02T20:22:12.715Z,99897.46
2018-10-02T20:24:42.212Z,99904.23
2018-10-02T20:27:14.040Z,99902.88
2018-10-02T20:29:47.558Z,99907.16
2018-10-02T20:32:17.829Z,99907.48
2018-10-02T20:34:48.006Z,99908.77
2018-10-02T20:37:19.098Z,99899.73
2018-10-02T20:39:52.999Z,99909.55
2018-10-02T20:42:24.874Z,99908.67
2018-10-02T20:44:59.222Z,99903.38
2018-10-02T20:47:41.613Z,99903.66
2018-10-02T20:50:11.314Z,99904.41
2018-10-02T20:53:02.943Z,99909.92
2018-10-02T20:55:39.670Z,99906.75
2018-10-02T20:58:08.703Z,99898.35
2018-10-02T21:00:37.606Z,99901.64
2018-10-02T21:03:06.564Z,99902.36
2018-10-02T21:05:35.423Z,99892.52
2018-10-02T21:08:04.207Z,99890.73
2018-10-02T21:10:32.979Z,99895.30
2018-10-02T21:13:01.710Z,99885.00
2018-10-02T21:15:31.205Z,99870.41
2018-10-02T21:17:59.853Z,99881.95
2018-10-02T21:20:28.923Z,99866.61
2018-10-02T21:22:57.827Z,99867.74
2018-10-02T21:25:27.428Z,99860.05
2018-10-02T21:27:56.227Z,99842.00
2018-10-02T21:30:25.058Z,99854.83
2018-10-02T21:32:53.810Z,99849.70
2018-10-02T21:35:22.764Z,99833.11
2018-10-02T21:37:51.774Z,99831.27
2018-10-02T21:40:21.212Z,99816.86
2018-10-02T21:42:51.506Z,99831.02
2018-10-02T21:45:20.426Z,99813.29
2018-10-02T21:47:49.298Z,99835.11
2018-10-02T21:50:18.279Z,99806.92
2018-10-02T21:52:46.973Z,99788.54
2018-10-02T21:55:15.756Z,99810.78
2018-10-02T21:57:44.551Z,99786.41
2018-10-02T22:00:13.708Z,99807.31
2018-10-02T22:02:42.469Z,99805.92
2018-10-02T22:05:11.275Z,99802.92
2018-10-02T22:07:40.145Z,99808.49
2018-10-02T22:10:08.984Z,99818.69
2018-10-02T22:12:37.764Z,99816.56
2018-10-02T22:15:06.622Z,99812.23
2018-10-02T22:17:35.374Z,99812.18
2018-10-02T22:20:04.104Z,99825.12
2018-10-02T22:22:32.903Z,99809.66
2018-10-02T22:25:01.630Z,99793.94
2018-10-02T22:27:30.727Z,99793.46
2018-10-02T22:30:00.715Z,99797.31
2018-10-02T22:32:36.775Z,99801.11
2018-10-02T22:35:14.521Z,99804.15
2018-10-02T22:37:43.282Z,99794.31
2018-10-02T22:40:12.576Z,99802.13
2018-10-02T22:43:14.458Z,99798.61
2018-10-02T22:46:25.746Z,99799.95
2018-10-02T22:56:11.334Z,99784.81
2018-10-02T23:19:52.326Z,99812.66
2018-10-02T23:22:21.152Z,99813.45
2018-10-02T23:24:49.891Z,99802.02
2018-10-02T23:27:18.599Z,99812.18
2018-10-02T23:29:47.282Z,99849.33
2018-10-02T23:32:16.052Z,99823.20
2018-10-02T23:34:44.793Z,99805.11
2018-10-02T23:37:13.571Z,99838.10
2018-10-02T23:39:42.289Z,99806.35
2018-10-02T23:42:11.456Z,99809.33
2018-10-02T23:44:40.165Z,99820.47
2018-10-02T23:47:08.882Z,99836.77
2018-10-02T23:49:37.615Z,99824.80
2018-10-02T23:52:06.300Z,99877.83
2018-10-02T23:54:34.990Z,99820.31
2018-10-02T23:57:03.715Z,99837.52
2018-10-02T23:59:32.491Z,99830.73
